createdAt,value
2022-11-28T00:04:35.653Z,101266.80
2022-11-28T00:09:45.139Z,101261.40
2022-11-28T00:14:54.677Z,101255.60
2022-11-28T00:20:04.075Z,101255.20
2022-11-28T00:25:14.050Z,101258.60
2022-11-28T00:30:23.703Z,101257.80
2022-11-28T00:35:34.185Z,101259.80
2022-11-28T00:40:43.526Z,101254.80
2022-11-28T00:45:53.058Z,101242.20
2022-11-28T00:51:11.525Z,101249.00
2022-11-28T00:56:24.826Z,101245.20
2022-11-28T01:01:37.202Z,101247.40
2022-11-28T01:06:49.242Z,101242.00
2022-11-28T01:11:58.973Z,101245.80
2022-11-28T01:17:09.278Z,101241.80
2022-11-28T01:22:18.805Z,101244.00
2022-11-28T01:27:28.551Z,101232.00
2022-11-28T01:32:38.072Z,101225.60
2022-11-28T01:37:47.678Z,101218.00
2022-11-28T01:42:57.212Z,101214.20
2022-11-28T01:48:09.758Z,101207.60
2022-11-28T01:53:19.809Z,101213.00
2022-11-28T01:58:30.075Z,101205.20
2022-11-28T02:03:47.158Z,101195.40
2022-11-28T02:08:58.002Z,101194.20
2022-11-28T02:14:25.943Z,101197.60
2022-11-28T02:20:17.070Z,101186.80
2022-11-28T02:25:54.512Z,101192.00
2022-11-28T02:31:17.636Z,101185.60
2022-11-28T02:36:34.733Z,101179.20
2022-11-28T02:41:54.103Z,101176.40
2022-11-28T02:47:08.179Z,101171.20
2022-11-28T02:52:23.231Z,101161.40
2022-11-28T02:57:40.854Z,101153.80
2022-11-28T03:02:56.274Z,101149.00
2022-11-28T03:08:27.036Z,101143.00
2022-11-28T03:13:53.350Z,101141.00
2022-11-28T03:19:12.362Z,101139.00
2022-11-28T03:24:32.089Z,101130.60
2022-11-28T03:29:46.944Z,101129.40
2022-11-28T03:35:06.742Z,101143.60
2022-11-28T03:40:23.723Z,101141.00
2022-11-28T03:45:38.756Z,101150.00
2022-11-28T03:50:55.006Z,101146.20
2022-11-28T03:56:12.847Z,101144.40
2022-11-28T04:01:35.932Z,101153.00
2022-11-28T04:06:59.151Z,101155.80
2022-11-28T04:12:25.619Z,101149.60
2022-11-28T04:17:46.039Z,101148.40
2022-11-28T04:23:01.050Z,101140.40
2022-11-28T04:28:20.028Z,101135.20
2022-11-28T04:33:36.325Z,101135.60
2022-11-28T04:38:56.665Z,101130.00
2022-11-28T04:44:15.194Z,101130.20
2022-11-28T04:49:25.324Z,101125.80
2022-11-28T04:54:45.488Z,101126.00
2022-11-28T04:59:56.560Z,101124.40
2022-11-28T05:05:11.866Z,101127.80
2022-11-28T05:10:21.919Z,101122.80
2022-11-28T05:15:31.492Z,101130.00
2022-11-28T05:20:42.651Z,101127.00
2022-11-28T05:25:52.184Z,101132.20
2022-11-28T05:31:05.350Z,101144.00
2022-11-28T05:36:17.737Z,101146.60
2022-11-28T05:41:30.546Z,101150.60
2022-11-28T05:46:40.312Z,101140.20
2022-11-28T05:51:50.139Z,101140.80
2022-11-28T05:57:01.931Z,101134.20
2022-11-28T06:02:13.943Z,101131.20
2022-11-28T06:07:23.672Z,101131.40
2022-11-28T06:12:33.236Z,101131.80
2022-11-28T06:17:42.777Z,101133.60
2022-11-28T06:22:52.750Z,101135.40
2022-11-28T06:28:02.575Z,101138.60
2022-11-28T06:33:12.169Z,101132.60
2022-11-28T06:38:21.730Z,101129.40
2022-11-28T06:43:31.420Z,101131.40
2022-11-28T06:48:41.074Z,101132.40
2022-11-28T06:53:50.948Z,101136.00
2022-11-28T06:59:02.272Z,101131.00
2022-11-28T07:04:12.247Z,101133.20
2022-11-28T07:09:21.770Z,101131.40
2022-11-28T07:14:33.874Z,101141.60
2022-11-28T07:19:44.143Z,101136.80
2022-11-28T07:24:53.953Z,101133.80
2022-11-28T07:30:03.770Z,101129.60
2022-11-28T07:35:14.002Z,101125.40
2022-11-28T07:40:23.583Z,101125.20
2022-11-28T07:45:58.945Z,101123.20
2022-11-28T07:51:06.166Z,101119.60
2022-11-28T07:56:18.321Z,101123.20
2022-11-28T08:01:30.239Z,101119.20
2022-11-28T08:06:43.568Z,101120.60
2022-11-28T08:11:53.265Z,101116.80
2022-11-28T08:17:03.074Z,101107.60
2022-11-28T08:22:12.690Z,101113.00
2022-11-28T08:27:22.430Z,101105.80
2022-11-28T08:32:33.966Z,101118.60
2022-11-28T08:37:43.559Z,101117.20
2022-11-28T08:42:53.002Z,101110.00
2022-11-28T08:48:03.651Z,101119.00
2022-11-28T08:53:18.535Z,101110.20
2022-11-28T08:58:28.403Z,101113.40
2022-11-28T09:03:37.820Z,101110.60
2022-11-28T09:08:48.085Z,101108.00
2022-11-28T09:13:57.540Z,101103.60
2022-11-28T09:19:09.439Z,101107.20
2022-11-28T09:24:19.289Z,101104.20
2022-11-28T09:29:30.041Z,101103.60
2022-11-28T09:34:39.905Z,101096.40
2022-11-28T09:40:12.077Z,101095.80
2022-11-28T09:45:23.742Z,101092.00
2022-11-28T09:50:39.785Z,101096.60
2022-11-28T09:55:55.042Z,101092.80
2022-11-28T10:01:15.490Z,101091.40
2022-11-28T10:06:31.572Z,101090.60
2022-11-28T10:12:02.013Z,101081.20
2022-11-28T10:17:25.399Z,101081.40
2022-11-28T10:22:46.112Z,101070.40
2022-11-28T10:27:57.347Z,101074.80
2022-11-28T10:33:25.618Z,101076.20
2022-11-28T10:38:37.912Z,101074.20
2022-11-28T10:43:55.691Z,101064.20
2022-11-28T10:49:28.381Z,101070.00
2022-11-28T10:55:00.268Z,101071.20
2022-11-28T11:00:18.438Z,101067.40
2022-11-28T11:05:31.519Z,101057.80
2022-11-28T11:10:49.379Z,101057.20
2022-11-28T11:16:04.972Z,101057.20
2022-11-28T11:21:21.456Z,101054.60
2022-11-28T11:26:40.120Z,101054.80
2022-11-28T11:31:56.362Z,101059.40
2022-11-28T11:37:32.606Z,101066.40
2022-11-28T11:42:58.486Z,101060.00
2022-11-28T11:48:15.170Z,101056.40
2022-11-28T11:53:24.896Z,101058.60
2022-11-28T11:58:44.962Z,101057.40
2022-11-28T12:04:17.762Z,101058.60
2022-11-28T12:09:40.812Z,101059.60
2022-11-28T12:14:53.226Z,101059.80
2022-11-28T12:20:27.906Z,101061.00
2022-11-28T12:25:46.555Z,101055.20
2022-11-28T12:31:12.749Z,101054.20
2022-11-28T12:36:35.230Z,101054.40
2022-11-28T12:42:26.138Z,101062.80
2022-11-28T12:47:51.933Z,101055.80
2022-11-28T12:53:23.610Z,101055.40
2022-11-28T12:58:42.606Z,101047.00
2022-11-28T13:04:07.710Z,101055.60
2022-11-28T13:09:34.174Z,101059.60
2022-11-28T13:14:56.066Z,101052.40
2022-11-28T13:20:19.929Z,101054.60
2022-11-28T13:25:41.906Z,101045.40
2022-11-28T13:30:57.513Z,101042.20
2022-11-28T13:38:35.121Z,101042.00
2022-11-28T13:42:43.830Z,101041.80
2022-11-28T13:47:35.795Z,101035.40
2022-11-28T13:52:58.963Z,101036.20
2022-11-28T13:58:30.612Z,101030.40
2022-11-28T14:03:50.100Z,101029.20
2022-11-28T14:09:10.912Z,101028.60
2022-11-28T14:14:39.937Z,101024.80
2022-11-28T14:20:11.920Z,101018.60
2022-11-28T14:25:28.750Z,101011.20
2022-11-28T14:30:41.486Z,101011.20
2022-11-28T14:36:36.823Z,101013.00
2022-11-28T14:43:00.030Z,101021.60
2022-11-28T14:48:30.005Z,101022.20
2022-11-28T14:53:51.564Z,101024.20
2022-11-28T14:59:06.525Z,101028.60
2022-11-28T15:04:44.394Z,101023.20
2022-11-28T15:10:07.674Z,101021.20
2022-11-28T15:15:20.676Z,101020.00
2022-11-28T15:20:37.969Z,101025.20
2022-11-28T15:25:58.217Z,101024.60
2022-11-28T15:31:09.235Z,101029.00
2022-11-28T15:36:31.086Z,101028.40
2022-11-28T15:41:41.118Z,101021.80
2022-11-28T15:46:51.185Z,101022.80
2022-11-28T15:52:05.560Z,101019.40
2022-11-28T15:57:28.672Z,101014.00
2022-11-28T16:02:40.036Z,101015.80
2022-11-28T16:07:51.756Z,101015.80
2022-11-28T16:13:12.193Z,101013.40
2022-11-28T16:18:22.235Z,101008.60
2022-11-28T16:23:38.110Z,101008.80
2022-11-28T16:29:13.640Z,101006.80
2022-11-28T16:34:50.448Z,101016.60
2022-11-28T16:40:15.761Z,101016.20
2022-11-28T16:45:29.237Z,101010.80
2022-11-28T16:50:39.080Z,101016.80
2022-11-28T16:55:49.706Z,101024.60
2022-11-28T17:01:10.155Z,101021.00
2022-11-28T17:06:34.232Z,101021.00
2022-11-28T17:11:57.870Z,101025.00
2022-11-28T17:17:16.516Z,101015.60
2022-11-28T17:22:37.447Z,101014.60
2022-11-28T17:27:50.538Z,101014.20
2022-11-28T17:33:00.406Z,101019.60
2022-11-28T17:38:09.937Z,101026.80
2022-11-28T17:43:22.856Z,101015.40
2022-11-28T17:48:32.535Z,101019.80
2022-11-28T17:53:42.028Z,101012.20
2022-11-28T17:58:52.063Z,101011.60
2022-11-28T18:04:02.310Z,101013.00
2022-11-28T18:09:12.519Z,101013.20
2022-11-28T18:14:22.197Z,101015.20
2022-11-28T18:19:32.726Z,101023.40
2022-11-28T18:24:42.280Z,101023.40
2022-11-28T18:29:51.962Z,101017.60
2022-11-28T18:35:01.811Z,101022.00
2022-11-28T18:40:13.750Z,101025.40
2022-11-28T18:45:23.691Z,101025.00
2022-11-28T18:50:33.089Z,101029.80
2022-11-28T18:55:42.803Z,101029.60
2022-11-28T19:00:52.467Z,101031.00
2022-11-28T19:06:04.675Z,101027.40
2022-11-28T19:11:16.578Z,101035.20
2022-11-28T19:16:29.514Z,101030.00
2022-11-28T19:21:39.867Z,101029.00
2022-11-28T19:26:49.626Z,101035.00
2022-11-28T19:31:59.366Z,101037.20
2022-11-28T19:37:09.159Z,101032.40
2022-11-28T19:42:18.595Z,101035.80
2022-11-28T19:47:28.023Z,101026.00
2022-11-28T19:52:37.548Z,101039.60
2022-11-28T19:57:47.066Z,101035.20
2022-11-28T20:02:57.641Z,101030.80
2022-11-28T20:08:08.404Z,101032.80
2022-11-28T20:13:17.833Z,101036.40
2022-11-28T20:18:27.834Z,101034.00
2022-11-28T20:23:39.742Z,101028.00
2022-11-28T20:28:50.226Z,101025.80
2022-11-28T20:34:00.200Z,101034.20
2022-11-28T20:39:10.194Z,101033.00
2022-11-28T20:44:21.291Z,101038.20
2022-11-28T20:49:30.724Z,101039.80
2022-11-28T20:54:40.187Z,101033.00
2022-11-28T20:59:50.011Z,101034.00
2022-11-28T21:04:59.715Z,101040.00
2022-11-28T21:10:11.506Z,101034.20
2022-11-28T21:15:21.259Z,101036.80
2022-11-28T21:20:30.911Z,101039.00
2022-11-28T21:25:44.209Z,101034.60
2022-11-28T21:30:54.352Z,101047.20
2022-11-28T21:36:06.887Z,101045.60
2022-11-28T21:41:16.286Z,101043.00
2022-11-28T21:46:26.352Z,101032.20
2022-11-28T21:51:35.752Z,101030.60
2022-11-28T21:56:45.183Z,101033.20
2022-11-28T22:01:55.073Z,101025.00
2022-11-28T22:07:04.495Z,101034.80
2022-11-28T22:12:14.270Z,101025.60
2022-11-28T22:17:23.848Z,101018.60
2022-11-28T22:22:33.538Z,101021.00
2022-11-28T22:27:43.057Z,101030.20
2022-11-28T22:32:53.931Z,101031.60
2022-11-28T22:38:03.502Z,101021.40
2022-11-28T22:43:13.113Z,101015.40
2022-11-28T22:48:22.638Z,101022.40
2022-11-28T22:53:32.088Z,101017.40
2022-11-28T22:58:43.781Z,101013.80
2022-11-28T23:03:54.684Z,101010.40
2022-11-28T23:09:10.826Z,101019.40
2022-11-28T23:14:20.211Z,101012.20
2022-11-28T23:19:31.324Z,101017.20
2022-11-28T23:24:41.045Z,101022.60
2022-11-28T23:29:50.487Z,101010.40
2022-11-28T23:35:01.396Z,101015.40
2022-11-28T23:40:13.814Z,101020.00
2022-11-28T23:45:23.291Z,101013.60
2022-11-28T23:50:33.085Z,101014.60
2022-11-28T23:55:42.644Z,101014.60
